Time;durP1;ratioP1;P1;durP2;ratioP2;P2;SDS_P1;SDS_P2;PMS_P1;PMS_P2;Temp;Humidity;BMP_temperature;BMP_pressure;BME280_temperature;BME280_humidity;BME280_pressure;Samples;Min_cycle;Max_cycle;Signal;HPM_P1;HPM_P2
2021/08/03 00:02:00;;;;;;;;;;;14.70;99.90;;;;;;5091871;28;20010;-81
2021/08/03 00:04:28;;;;;;;;;;;14.70;99.90;;;;;;5092032;28;19915;-81
2021/08/03 00:06:55;;;;;;;;;;;14.60;99.90;;;;;;5093293;28;20318;-81
2021/08/03 00:09:21;;;;;;;;;;;14.60;99.90;;;;;;5096373;28;19912;-81
2021/08/03 00:11:47;;;;;;;;;;;14.60;99.90;;;;;;5095569;28;19908;-82
2021/08/03 00:14:13;;;;;;;;;;;14.50;99.90;;;;;;5095624;28;20372;-82
2021/08/03 00:16:40;;;;;;;;;;;14.50;99.90;;;;;;5095606;28;19912;-81
2021/08/03 00:19:06;;;;;;;;;;;14.60;99.90;;;;;;5095819;28;19926;-81
2021/08/03 00:21:31;;;;;;;;;;;14.60;99.90;;;;;;5095404;28;19940;-81
2021/08/03 00:23:57;;;;;;;;;;;14.60;99.90;;;;;;5095611;28;19934;-82
2021/08/03 00:26:23;;;;;;;;;;;14.50;99.90;;;;;;5096483;28;20276;-82
2021/08/03 00:28:51;;;;;;;;;;;14.50;99.90;;;;;;5095106;28;19943;-82
2021/08/03 00:31:18;;;;;;;;;;;14.50;99.90;;;;;;5094919;28;19915;-81
2021/08/03 00:33:45;;;;;;;;;;;14.40;99.90;;;;;;5096588;28;19912;-82
2021/08/03 00:36:11;;;;;;;;;;;14.40;99.90;;;;;;5094886;28;19983;-81
2021/08/03 00:38:37;;;;;;;;;;;14.40;99.90;;;;;;5095327;28;19961;-81
2021/08/03 00:41:04;;;;;;;;;;;14.40;99.90;;;;;;5094529;28;19962;-81
2021/08/03 00:43:29;;;;;;;;;;;14.30;99.90;;;;;;5096901;28;19914;-81
2021/08/03 00:45:55;;;;;;;;;;;14.30;99.90;;;;;;5096437;28;20282;-82
2021/08/03 00:48:20;;;;;;;;;;;14.40;99.90;;;;;;5096455;28;20408;-81
2021/08/03 00:50:46;;;;;;;;;;;14.40;99.90;;;;;;5095830;28;19908;-81
2021/08/03 00:53:11;;;;;;;;;;;14.50;99.90;;;;;;5096399;28;19908;-82
2021/08/03 00:55:37;;;;;;;;;;;14.50;99.90;;;;;;5095867;28;19912;-82
2021/08/03 00:58:03;;;;;;;;;;;14.40;99.90;;;;;;5094679;28;19915;-82
2021/08/03 01:00:28;;;;;;;;;;;14.40;99.90;;;;;;5095445;28;19908;-82
2021/08/03 01:02:54;;;;;;;;;;;14.30;99.90;;;;;;5094656;28;19912;-82
2021/08/03 01:05:20;;;;;;;;;;;14.30;99.90;;;;;;5096406;28;19966;-82
2021/08/03 01:07:52;;;;;;;;;;;14.20;99.90;;;;;;5094792;28;19908;-82
2021/08/03 01:10:25;;;;;;;;;;;14.30;99.90;;;;;;5095594;28;20364;-81
2021/08/03 01:12:56;;;;;;;;;;;14.20;99.90;;;;;;5096043;28;19912;-81
2021/08/03 01:15:42;;;;;;;;;;;14.30;99.90;;;;;;5095103;28;19922;-81
2021/08/03 01:18:15;;;;;;;;;;;14.30;99.90;;;;;;5093240;28;20341;-81
2021/08/03 01:21:01;;;;;;;;;;;14.30;99.90;;;;;;5093875;28;19912;-82
2021/08/03 01:23:45;;;;;;;;;;;14.30;99.90;;;;;;5080955;28;20339;-81
2021/08/03 01:26:30;;;;;;;;;;;14.20;99.90;;;;;;5094515;28;20322;-82
2021/08/03 01:28:56;;;;;;;;;;;14.20;99.90;;;;;;5093328;28;20022;-81
2021/08/03 01:31:25;;;;;;;;;;;14.20;99.90;;;;;;5094179;28;19912;-81
2021/08/03 01:33:52;;;;;;;;;;;14.20;99.90;;;;;;5095365;28;19912;-81
2021/08/03 01:36:18;;;;;;;;;;;14.10;99.90;;;;;;5094014;28;19912;-81
2021/08/03 01:38:45;;;;;;;;;;;14.20;99.90;;;;;;5095171;28;19915;-81
2021/08/03 01:41:13;;;;;;;;;;;14.20;99.90;;;;;;5094688;28;19908;-81
2021/08/03 01:43:40;;;;;;;;;;;14.10;99.90;;;;;;5095055;28;19914;-81
2021/08/03 01:46:06;;;;;;;;;;;14.10;99.90;;;;;;5094105;28;19908;-81
2021/08/03 01:48:33;;;;;;;;;;;14.20;99.90;;;;;;5093632;28;19908;-81
2021/08/03 01:50:59;;;;;;;;;;;14.20;99.90;;;;;;5094182;28;19908;-82
2021/08/03 01:53:25;;;;;;;;;;;14.20;99.90;;;;;;5095108;28;19931;-82
2021/08/03 01:55:52;;;;;;;;;;;14.20;99.90;;;;;;5093244;28;19948;-81
2021/08/03 01:58:19;;;;;;;;;;;14.20;99.90;;;;;;5093221;28;19919;-81
2021/08/03 02:00:45;;;;;;;;;;;14.20;99.90;;;;;;5094258;28;19915;-81
2021/08/03 02:03:10;;;;;;;;;;;14.20;99.90;;;;;;5093591;28;19908;-81
2021/08/03 02:05:39;;;;;;;;;;;14.20;99.90;;;;;;5094917;28;19961;-81
2021/08/03 02:08:06;;;;;;;;;;;14.20;99.90;;;;;;5093603;28;19908;-81
2021/08/03 02:10:32;;;;;;;;;;;14.20;99.90;;;;;;5094374;28;19930;-81
2021/08/03 02:12:57;;;;;;;;;;;14.20;99.90;;;;;;5094742;28;19909;-81
2021/08/03 02:15:23;;;;;;;;;;;14.20;99.90;;;;;;5092924;28;19912;-81
2021/08/03 02:17:48;;;;;;;;;;;14.20;99.90;;;;;;5094864;28;19912;-81
2021/08/03 02:20:14;;;;;;;;;;;14.20;99.90;;;;;;5093731;28;19978;-81
2021/08/03 02:22:39;;;;;;;;;;;14.20;99.90;;;;;;5094412;28;19912;-82
2021/08/03 02:25:09;;;;;;;;;;;14.20;99.90;;;;;;5094603;28;19930;-82
2021/08/03 02:27:35;;;;;;;;;;;14.20;99.90;;;;;;5094272;28;19912;-81
2021/08/03 02:30:01;;;;;;;;;;;14.20;99.90;;;;;;5093285;28;19915;-82
2021/08/03 02:32:37;;;;;;;;;;;14.20;99.90;;;;;;5092710;28;20276;-82
2021/08/03 02:35:17;;;;;;;;;;;14.20;99.90;;;;;;5094546;28;20393;-82
2021/08/03 02:37:47;;;;;;;;;;;14.30;99.90;;;;;;5094217;28;19908;-81
2021/08/03 02:40:13;;;;;;;;;;;14.20;99.90;;;;;;5093619;28;20370;-82
2021/08/03 02:42:39;;;;;;;;;;;14.30;99.90;;;;;;5094476;28;20007;-81
2021/08/03 02:45:05;;;;;;;;;;;14.30;99.90;;;;;;5094209;28;19908;-82
2021/08/03 02:47:49;;;;;;;;;;;14.30;99.90;;;;;;5092845;28;19919;-81
2021/08/03 02:50:15;;;;;;;;;;;14.30;99.90;;;;;;5092717;28;19908;-81
2021/08/03 02:52:42;;;;;;;;;;;14.30;99.90;;;;;;5094548;28;19940;-81
2021/08/03 02:55:14;;;;;;;;;;;14.40;99.90;;;;;;5092444;28;19919;-81
2021/08/03 02:57:41;;;;;;;;;;;14.40;99.90;;;;;;5093266;28;20292;-82
2021/08/03 03:00:07;;;;;;;;;;;14.40;99.90;;;;;;5091552;28;19908;-82
2021/08/03 03:02:37;;;;;;;;;;;14.40;99.90;;;;;;5091391;28;19934;-81
2021/08/03 03:05:05;;;;;;;;;;;14.40;99.90;;;;;;5092981;28;19908;-81
2021/08/03 03:07:40;;;;;;;;;;;14.30;99.90;;;;;;5092398;28;19908;-82
2021/08/03 03:10:07;;;;;;;;;;;14.40;99.90;;;;;;5093285;28;19912;-81
2021/08/03 03:12:35;;;;;;;;;;;14.40;99.90;;;;;;5093634;28;19969;-82
2021/08/03 03:15:02;;;;;;;;;;;14.40;99.90;;;;;;5093715;28;19936;-81
2021/08/03 03:17:31;;;;;;;;;;;14.40;99.90;;;;;;5092438;28;20414;-82
2021/08/03 03:19:58;;;;;;;;;;;14.40;99.90;;;;;;5091429;28;19916;-82
2021/08/03 03:22:24;;;;;;;;;;;14.40;99.90;;;;;;5092120;28;19908;-82
2021/08/03 03:24:50;;;;;;;;;;;14.40;99.90;;;;;;5092844;28;19923;-81
2021/08/03 03:27:17;;;;;;;;;;;14.40;99.90;;;;;;5092441;28;20186;-82
2021/08/03 03:29:43;;;;;;;;;;;14.40;99.90;;;;;;5091603;28;19918;-81
2021/08/03 03:32:08;;;;;;;;;;;14.40;99.90;;;;;;5092360;28;19915;-81
2021/08/03 03:34:34;;;;;;;;;;;14.50;99.90;;;;;;5093382;28;20002;-81
2021/08/03 03:37:00;;;;;;;;;;;14.50;99.90;;;;;;5094436;28;20387;-82
2021/08/03 03:39:27;;;;;;;;;;;14.50;99.90;;;;;;5091822;28;20365;-82
2021/08/03 03:41:53;;;;;;;;;;;14.60;99.90;;;;;;5095004;28;19915;-82
2021/08/03 03:44:19;;;;;;;;;;;14.60;99.90;;;;;;5096209;28;19973;-82
2021/08/03 03:46:48;;;;;;;;;;;14.60;99.90;;;;;;5097806;28;20380;-81
2021/08/03 03:49:16;;;;;;;;;;;14.70;99.90;;;;;;5096725;28;19912;-82
2021/08/03 03:51:42;;;;;;;;;;;14.70;99.90;;;;;;5097280;28;19915;-81
2021/08/03 03:54:09;;;;;;;;;;;14.70;99.90;;;;;;5097729;28;19915;-82
2021/08/03 03:56:39;;;;;;;;;;;14.70;99.90;;;;;;5095899;28;19958;-81
2021/08/03 03:59:04;;;;;;;;;;;14.70;99.90;;;;;;5097153;28;19953;-82
2021/08/03 04:01:30;;;;;;;;;;;14.60;99.90;;;;;;5095632;28;19912;-82
2021/08/03 04:03:58;;;;;;;;;;;14.60;99.90;;;;;;5095521;28;19951;-81
2021/08/03 04:06:24;;;;;;;;;;;14.60;99.90;;;;;;5097412;28;20018;-81
2021/08/03 04:08:49;;;;;;;;;;;14.60;99.90;;;;;;5095275;28;20357;-82
2021/08/03 04:11:16;;;;;;;;;;;14.60;99.90;;;;;;5096574;28;19915;-81
2021/08/03 04:13:43;;;;;;;;;;;14.60;99.90;;;;;;5095459;28;20347;-81
2021/08/03 04:16:08;;;;;;;;;;;14.60;99.90;;;;;;5096742;28;19912;-82
2021/08/03 04:18:34;;;;;;;;;;;14.60;99.90;;;;;;5095115;28;20326;-81
2021/08/03 04:20:59;;;;;;;;;;;14.60;99.90;;;;;;5096341;28;19919;-82
2021/08/03 04:23:25;;;;;;;;;;;14.60;99.90;;;;;;5095336;28;19908;-81
2021/08/03 04:25:50;;;;;;;;;;;14.60;99.90;;;;;;5096918;28;20376;-82
2021/08/03 04:28:16;;;;;;;;;;;14.60;99.90;;;;;;5095377;28;19938;-81
2021/08/03 04:30:41;;;;;;;;;;;14.60;99.90;;;;;;5094530;28;19943;-81
2021/08/03 04:33:07;;;;;;;;;;;14.70;99.90;;;;;;5096853;28;20376;-81
2021/08/03 04:35:32;;;;;;;;;;;14.70;99.90;;;;;;5095057;28;19919;-81
2021/08/03 04:37:58;;;;;;;;;;;14.70;99.90;;;;;;5094947;28;19908;-81
2021/08/03 04:40:23;;;;;;;;;;;14.70;99.90;;;;;;5096075;28;19908;-82
2021/08/03 04:42:49;;;;;;;;;;;14.70;99.90;;;;;;5095306;28;19922;-81
2021/08/03 04:45:15;;;;;;;;;;;14.70;99.90;;;;;;5096402;28;19912;-82
2021/08/03 04:47:41;;;;;;;;;;;14.70;99.90;;;;;;5095096;28;19959;-81
2021/08/03 04:50:08;;;;;;;;;;;14.80;99.90;;;;;;5096065;28;20379;-82
2021/08/03 04:52:34;;;;;;;;;;;14.80;99.90;;;;;;5094708;28;20304;-81
2021/08/03 04:55:00;;;;;;;;;;;14.80;99.90;;;;;;5095572;28;19923;-82
2021/08/03 04:57:25;;;;;;;;;;;14.80;99.90;;;;;;5094694;28;20368;-82
2021/08/03 04:59:51;;;;;;;;;;;14.90;99.90;;;;;;5094292;28;19916;-82
2021/08/03 05:02:16;;;;;;;;;;;14.90;99.90;;;;;;5094775;28;19915;-82
2021/08/03 05:04:42;;;;;;;;;;;15.00;99.90;;;;;;5094548;28;19908;-82
2021/08/03 05:07:09;;;;;;;;;;;14.90;99.90;;;;;;5094693;28;19908;-82
2021/08/03 05:09:34;;;;;;;;;;;15.00;99.90;;;;;;5095442;28;19908;-82
2021/08/03 05:12:00;;;;;;;;;;;15.00;99.90;;;;;;5094265;28;19912;-82
2021/08/03 05:14:25;;;;;;;;;;;15.00;99.90;;;;;;5094333;28;20319;-82
2021/08/03 05:16:51;;;;;;;;;;;15.00;99.90;;;;;;5094057;28;19908;-82
2021/08/03 05:55:28;;;;;;;;;;;15.40;99.90;;;;;;5072074;28;19924;-90
2021/08/03 05:57:53;;;;;;;;;;;15.40;99.90;;;;;;5074821;28;20018;-90
2021/08/03 06:00:19;;;;;;;;;;;15.50;99.90;;;;;;5072941;28;19957;-89
2021/08/03 06:09:16;;;;;;;;;;;15.50;99.90;;;;;;5073488;28;19954;-88
2021/08/03 06:24:15;;;;;;;;;;;15.50;99.90;;;;;;5034640;28;19963;-88
2021/08/03 06:26:43;;;;;;;;;;;15.50;99.90;;;;;;5015323;28;19958;-88
2021/08/03 06:29:08;;;;;;;;;;;15.60;99.90;;;;;;5046135;28;19912;-88
2021/08/03 06:31:34;;;;;;;;;;;15.60;99.90;;;;;;5072697;28;19972;-88
2021/08/03 06:34:00;;;;;;;;;;;15.60;99.90;;;;;;5072454;28;19909;-88
2021/08/03 06:36:26;;;;;;;;;;;15.60;99.90;;;;;;5072233;28;19920;-88
2021/08/03 06:38:51;;;;;;;;;;;15.70;99.90;;;;;;5071807;28;19913;-88
2021/08/03 06:41:30;;;;;;;;;;;15.70;99.90;;;;;;5073268;28;19978;-88
2021/08/03 06:44:05;;;;;;;;;;;15.80;99.90;;;;;;5072229;28;20356;-88
2021/08/03 06:46:33;;;;;;;;;;;15.80;99.90;;;;;;5072193;28;19931;-88
2021/08/03 06:49:03;;;;;;;;;;;15.80;99.90;;;;;;5071614;28;19931;-88
2021/08/03 06:51:31;;;;;;;;;;;15.80;99.90;;;;;;5074709;28;19916;-89
2021/08/03 06:54:00;;;;;;;;;;;15.80;99.90;;;;;;5072389;28;19917;-88
2021/08/03 06:56:29;;;;;;;;;;;15.80;99.90;;;;;;5071854;28;19912;-88
2021/08/03 06:58:58;;;;;;;;;;;15.90;99.90;;;;;;5071636;28;20378;-88
2021/08/03 07:01:39;;;;;;;;;;;15.90;99.90;;;;;;5073527;28;19908;-88
2021/08/03 07:04:05;;;;;;;;;;;15.90;99.90;;;;;;5073408;28;19908;-88
2021/08/03 07:06:35;;;;;;;;;;;15.90;99.90;;;;;;5073348;28;19915;-88
2021/08/03 07:09:05;;;;;;;;;;;15.90;99.90;;;;;;5071632;28;19908;-88
2021/08/03 07:11:31;;;;;;;;;;;15.90;99.90;;;;;;5071981;28;19915;-88
2021/08/03 07:13:58;;;;;;;;;;;15.90;99.90;;;;;;5071788;28;19909;-88
2021/08/03 07:16:24;;;;;;;;;;;16.00;99.90;;;;;;5071766;28;19912;-88
2021/08/03 07:18:49;;;;;;;;;;;16.00;99.90;;;;;;5071712;28;19915;-89
2021/08/03 07:21:16;;;;;;;;;;;16.10;99.90;;;;;;5075126;28;19908;-88
2021/08/03 07:23:43;;;;;;;;;;;16.10;99.90;;;;;;5072602;28;19913;-89
2021/08/03 07:26:08;;;;;;;;;;;16.20;99.90;;;;;;5074678;28;19908;-89
2021/08/03 07:28:34;;;;;;;;;;;16.20;99.90;;;;;;5074923;28;19934;-89
2021/08/03 07:31:00;;;;;;;;;;;16.20;99.90;;;;;;5072490;28;19909;-89
2021/08/03 07:33:26;;;;;;;;;;;16.20;99.90;;;;;;5071925;28;19930;-89
2021/08/03 07:35:51;;;;;;;;;;;16.20;99.90;;;;;;5071435;28;19966;-88
2021/08/03 07:38:17;;;;;;;;;;;16.20;99.90;;;;;;5073053;28;19939;-88
2021/08/03 07:40:42;;;;;;;;;;;16.30;99.90;;;;;;5072285;28;19944;-89
2021/08/03 07:43:08;;;;;;;;;;;16.20;99.90;;;;;;5072680;28;19935;-88
2021/08/03 07:45:35;;;;;;;;;;;16.30;99.90;;;;;;5071520;28;19995;-88
2021/08/03 07:48:01;;;;;;;;;;;16.30;99.90;;;;;;5072831;28;19974;-88
2021/08/03 07:50:27;;;;;;;;;;;16.30;99.90;;;;;;5070929;28;19908;-88
2021/08/03 07:52:53;;;;;;;;;;;16.40;99.90;;;;;;5072644;28;19908;-88
2021/08/03 07:55:18;;;;;;;;;;;16.40;99.90;;;;;;5072801;28;20234;-88
2021/08/03 07:57:44;;;;;;;;;;;16.40;99.90;;;;;;5072754;28;19962;-88
2021/08/03 08:00:09;;;;;;;;;;;16.40;99.90;;;;;;5070740;28;19912;-89
2021/08/03 08:02:35;;;;;;;;;;;16.40;99.90;;;;;;5071303;28;19977;-88
2021/08/03 08:05:00;;;;;;;;;;;16.40;99.90;;;;;;5071366;28;19909;-88
2021/08/03 08:07:27;;;;;;;;;;;16.40;99.90;;;;;;5070982;28;19916;-88
2021/08/03 08:09:53;;;;;;;;;;;16.50;99.90;;;;;;5070719;28;19932;-89
2021/08/03 08:12:19;;;;;;;;;;;16.40;99.90;;;;;;5071314;28;20101;-88
2021/08/03 08:14:44;;;;;;;;;;;16.40;99.90;;;;;;5071242;28;19913;-88
2021/08/03 08:17:10;;;;;;;;;;;16.40;99.90;;;;;;5072369;28;19908;-88
2021/08/03 08:19:35;;;;;;;;;;;16.40;99.90;;;;;;5070754;28;19908;-88
2021/08/03 08:22:01;;;;;;;;;;;16.40;99.90;;;;;;5071060;28;19948;-88
2021/08/03 08:24:26;;;;;;;;;;;16.40;99.90;;;;;;5072736;28;19909;-88
2021/08/03 08:26:52;;;;;;;;;;;16.50;99.90;;;;;;5071091;28;20348;-89
2021/08/03 08:29:18;;;;;;;;;;;16.50;99.90;;;;;;5072352;28;19909;-88
2021/08/03 08:31:44;;;;;;;;;;;16.60;99.90;;;;;;5076237;28;19936;-88
2021/08/03 08:34:10;;;;;;;;;;;16.60;99.90;;;;;;5076089;28;19915;-89
2021/08/03 08:36:36;;;;;;;;;;;16.70;99.90;;;;;;5075062;28;20007;-88
2021/08/03 08:39:02;;;;;;;;;;;16.80;99.90;;;;;;5075800;28;19955;-88
2021/08/03 08:41:28;;;;;;;;;;;16.80;99.90;;;;;;5074366;28;19913;-89
2021/08/03 08:43:54;;;;;;;;;;;16.90;99.90;;;;;;5074753;28;19909;-88
2021/08/03 08:46:20;;;;;;;;;;;17.00;99.90;;;;;;5074518;28;20344;-88
2021/08/03 08:48:46;;;;;;;;;;;17.10;99.90;;;;;;5074417;28;19908;-89
2021/08/03 08:51:12;;;;;;;;;;;17.10;99.90;;;;;;5073949;28;20388;-88
2021/08/03 08:53:37;;;;;;;;;;;17.20;99.90;;;;;;5074424;28;19956;-89
2021/08/03 08:56:03;;;;;;;;;;;17.20;99.90;;;;;;5074350;28;20284;-88
2021/08/03 08:58:32;;;;;;;;;;;17.20;99.90;;;;;;5074535;28;19913;-88
2021/08/03 09:00:58;;;;;;;;;;;17.20;99.90;;;;;;5073861;28;19915;-88
2021/08/03 09:03:24;;;;;;;;;;;17.20;99.90;;;;;;5074403;28;20319;-88
2021/08/03 09:06:00;;;;;;;;;;;17.20;99.90;;;;;;5074383;28;19909;-88
2021/08/03 09:08:32;;;;;;;;;;;17.30;99.90;;;;;;5074144;28;19912;-89
2021/08/03 09:11:04;;;;;;;;;;;17.20;99.90;;;;;;5073823;28;20208;-88
2021/08/03 09:13:29;;;;;;;;;;;17.20;99.90;;;;;;5075550;28;19958;-88
2021/08/03 09:15:59;;;;;;;;;;;17.30;99.90;;;;;;5075540;28;19917;-88
2021/08/03 09:18:25;;;;;;;;;;;17.30;99.90;;;;;;5073896;28;19908;-88
2021/08/03 09:20:50;;;;;;;;;;;17.30;99.90;;;;;;5073252;28;19908;-88
2021/08/03 09:23:16;;;;;;;;;;;17.40;99.60;;;;;;5075423;28;19912;-88
2021/08/03 09:25:52;;;;;;;;;;;17.40;99.50;;;;;;5073897;28;20414;-88
2021/08/03 09:28:18;;;;;;;;;;;17.50;99.30;;;;;;5075184;28;19909;-89
2021/08/03 09:30:43;;;;;;;;;;;17.60;99.30;;;;;;5073184;28;19916;-88
2021/08/03 09:33:09;;;;;;;;;;;17.60;98.60;;;;;;5074053;28;20011;-88
2021/08/03 09:35:34;;;;;;;;;;;17.70;98.30;;;;;;5075085;28;19913;-88
2021/08/03 09:38:00;;;;;;;;;;;17.70;98.10;;;;;;5073825;28;20388;-89
2021/08/03 09:40:33;;;;;;;;;;;17.80;98.20;;;;;;5074355;28;19954;-88
2021/08/03 09:43:05;;;;;;;;;;;17.90;98.00;;;;;;5073427;28;19909;-88
2021/08/03 09:45:32;;;;;;;;;;;17.90;98.00;;;;;;5073702;28;19964;-88
2021/08/03 09:48:14;;;;;;;;;;;17.90;97.40;;;;;;5073669;28;19908;-88
2021/08/03 09:50:59;;;;;;;;;;;18.00;97.70;;;;;;5073147;28;19975;-89
2021/08/03 09:53:36;;;;;;;;;;;18.00;96.40;;;;;;5074409;28;19958;-88
2021/08/03 09:56:02;;;;;;;;;;;18.10;96.80;;;;;;5073241;28;20479;-88
2021/08/03 09:58:28;;;;;;;;;;;18.10;96.60;;;;;;5075311;28;19916;-88
2021/08/03 10:00:53;;;;;;;;;;;18.20;96.20;;;;;;5072651;28;19908;-88
2021/08/03 10:03:19;;;;;;;;;;;18.20;96.00;;;;;;5072940;28;19913;-89
2021/08/03 10:05:45;;;;;;;;;;;18.20;96.10;;;;;;5074462;28;19908;-89
2021/08/03 10:08:11;;;;;;;;;;;18.30;95.90;;;;;;5074761;28;19995;-89
2021/08/03 10:10:37;;;;;;;;;;;18.30;95.70;;;;;;5072600;28;19940;-89
2021/08/03 10:13:04;;;;;;;;;;;18.30;95.00;;;;;;5073441;28;19913;-88
2021/08/03 10:15:29;;;;;;;;;;;18.30;94.80;;;;;;5074005;28;19939;-89
2021/08/03 10:17:55;;;;;;;;;;;18.40;94.70;;;;;;5074566;28;20376;-89
2021/08/03 10:20:20;;;;;;;;;;;18.50;93.60;;;;;;5073840;28;20315;-89
2021/08/03 10:22:54;;;;;;;;;;;18.50;93.90;;;;;;5072873;28;19908;-89
2021/08/03 10:25:20;;;;;;;;;;;18.60;94.00;;;;;;5073791;28;19924;-89
2021/08/03 10:27:47;;;;;;;;;;;18.60;93.50;;;;;;5073132;28;20399;-88
2021/08/03 10:30:28;;;;;;;;;;;18.70;93.20;;;;;;5072253;28;20425;-88
2021/08/03 10:32:57;;;;;;;;;;;18.80;93.00;;;;;;5072718;28;19908;-89
2021/08/03 10:35:43;;;;;;;;;;;18.80;92.90;;;;;;5072805;28;19919;-89
2021/08/03 10:38:13;;;;;;;;;;;18.90;93.00;;;;;;5072760;28;19916;-89
2021/08/03 10:40:44;;;;;;;;;;;18.90;92.40;;;;;;5072099;28;19915;-88
2021/08/03 10:43:12;;;;;;;;;;;18.90;92.70;;;;;;5073830;28;20388;-89
2021/08/03 10:45:38;;;;;;;;;;;18.90;92.10;;;;;;5072630;28;19915;-89
2021/08/03 10:48:03;;;;;;;;;;;18.80;92.40;;;;;;5072717;28;20258;-88
2021/08/03 10:50:32;;;;;;;;;;;18.90;92.20;;;;;;5071881;28;19916;-88
2021/08/03 10:52:58;;;;;;;;;;;18.90;92.00;;;;;;5071818;28;19908;-89
2021/08/03 10:55:40;;;;;;;;;;;18.90;92.70;;;;;;5072092;28;19917;-89
2021/08/03 10:58:09;;;;;;;;;;;18.90;91.90;;;;;;5072662;28;19915;-89
2021/08/03 11:00:55;;;;;;;;;;;18.80;92.40;;;;;;5071887;28;20375;-89
2021/08/03 11:03:32;;;;;;;;;;;18.80;93.00;;;;;;5073600;28;20377;-88
2021/08/03 11:06:18;;;;;;;;;;;18.80;93.20;;;;;;5073949;28;19915;-89
2021/08/03 11:08:47;;;;;;;;;;;18.80;93.00;;;;;;5073684;28;19941;-89
2021/08/03 11:11:22;;;;;;;;;;;18.90;92.90;;;;;;5072010;28;19908;-89
2021/08/03 11:13:49;;;;;;;;;;;18.90;92.70;;;;;;5073405;28;20384;-88
2021/08/03 11:16:21;;;;;;;;;;;18.90;92.90;;;;;;5072060;28;19920;-89
2021/08/03 11:18:48;;;;;;;;;;;18.90;92.60;;;;;;5072026;28;20365;-89
2021/08/03 11:21:17;;;;;;;;;;;18.80;92.70;;;;;;5072061;28;19919;-90
2021/08/03 11:23:58;;;;;;;;;;;18.80;92.90;;;;;;5072106;28;19991;-88
2021/08/03 11:26:25;;;;;;;;;;;18.70;92.90;;;;;;5071943;28;20321;-89
2021/08/03 11:29:11;;;;;;;;;;;18.60;92.90;;;;;;5071829;28;19909;-88
2021/08/03 11:31:40;;;;;;;;;;;18.50;92.90;;;;;;5073201;28;20258;-88
2021/08/03 11:34:06;;;;;;;;;;;18.50;93.10;;;;;;5072167;28;19909;-89
2021/08/03 11:36:32;;;;;;;;;;;18.40;93.30;;;;;;5072384;28;19920;-89
2021/08/03 11:38:57;;;;;;;;;;;18.40;93.70;;;;;;5071706;28;19920;-89
2021/08/03 11:41:23;;;;;;;;;;;18.30;93.80;;;;;;5073377;28;19908;-89
2021/08/03 11:43:49;;;;;;;;;;;18.30;94.10;;;;;;5072014;28;20335;-88
2021/08/03 11:46:35;;;;;;;;;;;18.30;94.10;;;;;;5072041;28;20043;-89
2021/08/03 11:49:03;;;;;;;;;;;18.30;94.10;;;;;;5071971;28;20349;-89
2021/08/03 11:51:36;;;;;;;;;;;18.20;93.70;;;;;;5071604;28;19913;-88
2021/08/03 11:54:15;;;;;;;;;;;18.30;93.20;;;;;;5071924;28;20269;-88
2021/08/03 11:56:41;;;;;;;;;;;18.20;93.30;;;;;;5072922;28;19912;-88
2021/08/03 11:59:07;;;;;;;;;;;18.20;93.50;;;;;;5071215;28;19987;-89
2021/08/03 12:01:48;;;;;;;;;;;18.10;93.70;;;;;;5073122;28;19908;-89
2021/08/03 12:04:14;;;;;;;;;;;18.10;93.80;;;;;;5073838;28;20458;-88
2021/08/03 12:06:40;;;;;;;;;;;18.10;93.90;;;;;;5075581;28;19999;-88
2021/08/03 12:09:06;;;;;;;;;;;18.10;93.90;;;;;;5074580;28;19963;-88
2021/08/03 12:11:32;;;;;;;;;;;18.10;93.80;;;;;;5074768;28;19916;-88
2021/08/03 12:14:06;;;;;;;;;;;18.10;94.00;;;;;;5074617;28;19915;-89
2021/08/03 12:16:32;;;;;;;;;;;18.10;93.30;;;;;;5074510;28;19913;-88
2021/08/03 12:18:57;;;;;;;;;;;18.10;93.40;;;;;;5074322;28;19931;-89
2021/08/03 12:21:33;;;;;;;;;;;18.10;93.30;;;;;;5074290;28;19915;-88
2021/08/03 12:24:08;;;;;;;;;;;18.10;93.30;;;;;;5074546;28;19912;-88
2021/08/03 12:26:34;;;;;;;;;;;18.10;93.50;;;;;;5075545;28;20296;-88
2021/08/03 12:29:00;;;;;;;;;;;18.00;93.80;;;;;;5075297;28;19946;-88
2021/08/03 12:31:44;;;;;;;;;;;18.00;93.80;;;;;;5075511;28;20462;-88
2021/08/03 12:34:13;;;;;;;;;;;18.00;93.90;;;;;;5074197;28;19912;-89
2021/08/03 12:36:48;;;;;;;;;;;18.00;93.80;;;;;;5074059;28;20288;-89
2021/08/03 12:39:28;;;;;;;;;;;18.00;93.80;;;;;;5074005;28;19919;-88
2021/08/03 12:42:21;;;;;;;;;;;17.90;94.00;;;;;;5074222;28;19962;-89
2021/08/03 12:44:48;;;;;;;;;;;17.90;94.20;;;;;;5074168;28;19974;-88
2021/08/03 12:47:18;;;;;;;;;;;17.90;94.50;;;;;;5075124;28;19908;-88
2021/08/03 12:49:48;;;;;;;;;;;17.90;94.40;;;;;;5073779;28;19916;-88
2021/08/03 12:52:16;;;;;;;;;;;17.90;94.40;;;;;;5073883;28;20369;-88
2021/08/03 12:54:43;;;;;;;;;;;17.90;94.60;;;;;;5074903;28;20011;-89
2021/08/03 12:57:12;;;;;;;;;;;18.00;94.90;;;;;;5073708;28;19915;-88
2021/08/03 12:59:42;;;;;;;;;;;18.00;95.00;;;;;;5073635;28;19916;-88
2021/08/03 13:02:09;;;;;;;;;;;18.00;95.10;;;;;;5073674;28;20331;-88
2021/08/03 13:04:34;;;;;;;;;;;18.00;95.20;;;;;;5074850;28;19915;-89
2021/08/03 13:07:00;;;;;;;;;;;18.10;95.30;;;;;;5074811;28;19955;-88
2021/08/03 13:09:29;;;;;;;;;;;18.10;95.30;;;;;;5074767;28;19966;-89
2021/08/03 13:11:55;;;;;;;;;;;18.20;95.40;;;;;;5073541;28;19912;-89
2021/08/03 13:14:20;;;;;;;;;;;18.30;95.30;;;;;;5072943;28;20250;-89
2021/08/03 13:16:46;;;;;;;;;;;18.30;95.10;;;;;;5074564;28;19913;-89
2021/08/03 13:19:11;;;;;;;;;;;18.50;95.30;;;;;;5073204;28;20003;-89
2021/08/03 13:21:37;;;;;;;;;;;18.60;94.60;;;;;;5074645;28;19981;-88
2021/08/03 13:24:02;;;;;;;;;;;18.70;94.50;;;;;;5073328;28;19999;-88
2021/08/03 13:26:28;;;;;;;;;;;18.90;94.40;;;;;;5073353;28;19915;-89
2021/08/03 13:28:55;;;;;;;;;;;19.00;94.30;;;;;;5074403;28;20015;-89
2021/08/03 13:31:21;;;;;;;;;;;19.10;94.50;;;;;;5073021;28;20361;-88
2021/08/03 13:33:46;;;;;;;;;;;19.20;94.70;;;;;;5073042;28;19913;-89
2021/08/03 13:36:12;;;;;;;;;;;19.20;94.30;;;;;;5072995;28;20369;-88
2021/08/03 13:38:38;;;;;;;;;;;19.30;94.40;;;;;;5073012;28;19909;-89
2021/08/03 13:41:03;;;;;;;;;;;19.30;94.00;;;;;;5074115;28;19908;-89
2021/08/03 13:43:29;;;;;;;;;;;19.40;94.00;;;;;;5072902;28;19913;-89
2021/08/03 13:45:55;;;;;;;;;;;19.50;94.00;;;;;;5072821;28;19915;-88
2021/08/03 13:48:20;;;;;;;;;;;19.60;93.90;;;;;;5073975;28;19909;-89
2021/08/03 13:50:47;;;;;;;;;;;19.70;93.70;;;;;;5072744;28;19958;-89
2021/08/03 13:53:12;;;;;;;;;;;19.70;92.90;;;;;;5072599;28;20330;-88
2021/08/03 13:55:38;;;;;;;;;;;19.70;93.20;;;;;;5074041;28;19908;-88
2021/08/03 13:58:03;;;;;;;;;;;19.60;93.10;;;;;;5072466;28;20463;-89
2021/08/03 14:00:29;;;;;;;;;;;19.60;93.10;;;;;;5072481;28;19962;-88
2021/08/03 14:02:54;;;;;;;;;;;19.60;93.20;;;;;;5072428;28;19915;-88
2021/08/03 14:05:20;;;;;;;;;;;19.60;93.30;;;;;;5073584;28;20353;-88
2021/08/03 14:07:45;;;;;;;;;;;19.50;93.20;;;;;;5072471;28;19963;-89
2021/08/03 14:10:11;;;;;;;;;;;19.50;92.90;;;;;;5072198;28;19951;-89
2021/08/03 14:12:37;;;;;;;;;;;19.40;92.70;;;;;;5072393;28;20398;-88
2021/08/03 14:15:03;;;;;;;;;;;19.40;92.80;;;;;;5073560;28;19919;-89
2021/08/03 14:17:28;;;;;;;;;;;19.40;93.00;;;;;;5072204;28;20365;-88
2021/08/03 14:19:54;;;;;;;;;;;19.40;93.10;;;;;;5072096;28;20286;-89
2021/08/03 14:22:20;;;;;;;;;;;19.40;93.00;;;;;;5072323;28;19915;-88
2021/08/03 14:24:45;;;;;;;;;;;19.40;92.60;;;;;;5072243;28;19916;-89
2021/08/03 14:27:11;;;;;;;;;;;19.50;92.70;;;;;;5072592;28;19930;-88
2021/08/03 14:29:37;;;;;;;;;;;19.50;92.70;;;;;;5071922;28;19944;-89
2021/08/03 14:32:06;;;;;;;;;;;19.50;92.60;;;;;;5071930;28;19991;-89
2021/08/03 14:34:32;;;;;;;;;;;19.60;92.60;;;;;;5071911;28;19912;-88
2021/08/03 14:36:57;;;;;;;;;;;19.60;92.10;;;;;;5071788;28;19963;-89
2021/08/03 14:39:23;;;;;;;;;;;19.60;91.70;;;;;;5071675;28;19974;-88
2021/08/03 14:41:48;;;;;;;;;;;19.60;91.40;;;;;;5071813;28;19913;-89
2021/08/03 14:44:14;;;;;;;;;;;19.50;91.50;;;;;;5072975;28;19916;-88
2021/08/03 14:46:40;;;;;;;;;;;19.50;91.60;;;;;;5071720;28;19908;-88
2021/08/03 14:49:05;;;;;;;;;;;19.50;91.50;;;;;;5071553;28;20403;-89
2021/08/03 14:51:31;;;;;;;;;;;19.40;91.40;;;;;;5071984;28;19931;-88
2021/08/03 14:53:57;;;;;;;;;;;19.30;91.60;;;;;;5071438;28;19916;-88
2021/08/03 14:56:23;;;;;;;;;;;19.30;91.50;;;;;;5071457;28;19987;-89
2021/08/03 14:58:48;;;;;;;;;;;19.20;91.70;;;;;;5072853;28;19908;-88
2021/08/03 15:01:14;;;;;;;;;;;19.20;92.10;;;;;;5072865;28;19966;-89
2021/08/03 15:03:39;;;;;;;;;;;19.10;92.40;;;;;;5071647;28;19912;-88
2021/08/03 15:06:05;;;;;;;;;;;19.10;92.60;;;;;;5073053;28;20257;-89
2021/08/03 15:08:30;;;;;;;;;;;19.00;92.70;;;;;;5073106;28;19908;-88
2021/08/03 15:10:56;;;;;;;;;;;19.00;92.90;;;;;;5073471;28;19909;-88
2021/08/03 15:13:21;;;;;;;;;;;19.00;92.60;;;;;;5074303;28;19912;-89
2021/08/03 15:15:47;;;;;;;;;;;18.90;92.60;;;;;;5078882;28;20429;-89